Erie, ND (58029)

1:52 PM CDT on October 23, 2014 (GMT -0500)
Home of the Absaraka Crows | Change Station
CLOSE
Current Station
Personal Weather Station
Location: Absaraka, ND
Elevation: 1066 ft
Nearby Weather Stations

Elev 1066 ft 46.98 °N, 97.39 °W | Updated 9 seconds ago

Clear
Clear
70.7 °F
Feels Like 77 °F
N
6.9
Wind Variable Wind from South
Gusts 11.4 mph

Today
High -- | Low -- °F
--% Chance of Precip.
Yesterday
High -- | Low -- °F
Precip. -- in
7:59 AM 6:27 PM
Waning Crescent, 0% visible
Pressure 29.91 in
Visibility 10.0 miles
Clouds Clear
Heat Index 77 °F
Dew Point 42 °F
Humidity 36%
Rainfall 0.00 in
Snow Depth Not available.
UV 3 out of 12
Pollen .90 out of 12
Air Quality Not available.
Flu Activity Local Activity
METAR KFAR 231753Z 19012KT 10SM CLR 17/08 A2990 RMK AO2 SLP126 T01670078 10167 20050 58008

More Conditions Fewer Conditions

Pressure 29.91 in
Visibility 10.0 miles
Clouds Clear
Heat Index 77 °F
Dew Point 42 °F
Humidity 36%
Rainfall 0.00 in
Snow Depth Not available.
UV 3 out of 12
Pollen .90 out of 12
Air Quality Not available.
Flu Activity Local Activity
METAR KFAR 231753Z 19012KT 10SM CLR 17/08 A2990 RMK AO2 SLP126 T01670078 10167 20050 58008

More Conditions Fewer Conditions

10-Day Weather Forecast

Almanac

Astronomy

Oct. 23, 2014 Rise Set
Actual Time 7:59 AM CDT 6:27 PM CDT
Civil Twilight 7:28 AM CDT 6:58 PM CDT
Nautical Twilight 6:52 AM CDT 7:34 PM CDT
Astronomical Twilight 6:17 AM CDT 8:09 PM CDT
Moon 7:39 AM CDT 6:29 PM CDT
Length of Visible Light 11h 30m
Length of Day
10h 28m
Tomorrow will be 3m 11s shorter.
Waning Crescent, 0% of the Moon is Illuminated
Today
Waning Crescent
Oct 23
New
Oct 30
First Quarter
Nov 6
Full
Nov 14
Last Quarter

Today's Extremes

State Highs State Lows

Community

WunderPhotos

Upload Photos

1,764,339 photos uploaded!

WunderBlogs® & News

By Dr. Jeff Masters
Director of Meteorology, Weather Underground
By Kari Strenfel
Meteorologist, Weather Underground
By Christopher C. Burt
Weather Historian, Weather Underground
October 23, 2014
October 23, 2014
October 23, 2014

Nearby

Snow Depth

Station Depth Elevation
No new snow has been reported.

Earthquake Activity

City Distance Mag. Time & Date
No recent earthquake activity has been reported nearby.
Minimum magnitude displayed is 2.5.

Coastal Water Temperatures

Place Temperature
No Stations Reporting

Nearby Weather Stations